Time;durP1;ratioP1;P1;durP2;ratioP2;P2;SDS_P1;SDS_P2;PMS_P1;PMS_P2;Temp;Humidity;BMP_temperature;BMP_pressure;BME280_temperature;BME280_humidity;BME280_pressure;Samples;Min_cycle;Max_cycle;Signal;HPM_P1;HPM_P2
2021/12/31 00:02:14;;;;;;;13.07;4.43;;;;;;;;;;5011423;28;97030;-75
2021/12/31 00:04:40;;;;;;;18.92;4.70;;;;;;;;;;5011138;28;95250;-77
2021/12/31 00:07:07;;;;;;;9.88;3.90;;;;;;;;;;5011374;28;97259;-79
2021/12/31 00:09:33;;;;;;;12.13;4.00;;;;;;;;;;5018851;28;97713;-75
2021/12/31 00:11:59;;;;;;;15.02;4.97;;;;;;;;;;5031916;28;95221;-78
2021/12/31 00:14:26;;;;;;;11.38;4.18;;;;;;;;;;5013680;28;96858;-78
2021/12/31 00:16:53;;;;;;;15.20;4.43;;;;;;;;;;5034105;27;97220;-79
2021/12/31 00:19:19;;;;;;;12.23;3.97;;;;;;;;;;5031709;28;95913;-79
2021/12/31 00:21:48;;;;;;;10.35;3.80;;;;;;;;;;5035229;28;96844;-75
2021/12/31 00:24:15;;;;;;;13.55;4.00;;;;;;;;;;5031791;28;95345;-77
2021/12/31 00:26:41;;;;;;;9.73;3.50;;;;;;;;;;5031629;28;96633;-79
2021/12/31 00:29:07;;;;;;;12.77;3.30;;;;;;;;;;5031433;28;97341;-76
2021/12/31 00:31:33;;;;;;;13.88;4.22;;;;;;;;;;5031915;27;95721;-77
2021/12/31 00:34:00;;;;;;;7.97;3.00;;;;;;;;;;5030727;28;97458;-78
2021/12/31 00:36:43;;;;;;;10.48;3.50;;;;;;;;;;5031309;28;97278;-79
2021/12/31 00:39:09;;;;;;;8.63;3.30;;;;;;;;;;5031629;28;95419;-77
2021/12/31 00:41:36;;;;;;;12.43;3.80;;;;;;;;;;5031145;28;97025;-75
2021/12/31 00:44:02;;;;;;;10.82;3.28;;;;;;;;;;5016831;27;97112;-76
2021/12/31 00:46:29;;;;;;;8.80;3.35;;;;;;;;;;5051969;27;95560;-78
2021/12/31 00:48:56;;;;;;;10.90;3.50;;;;;;;;;;5033170;27;97170;-75
2021/12/31 00:51:22;;;;;;;9.25;3.03;;;;;;;;;;5037016;27;95723;-76
2021/12/31 00:53:48;;;;;;;12.82;3.42;;;;;;;;;;5031255;28;97211;-78
2021/12/31 00:56:15;;;;;;;11.63;3.45;;;;;;;;;;5030737;28;97796;-77
2021/12/31 00:58:41;;;;;;;8.90;3.30;;;;;;;;;;5049576;27;95275;-81
2021/12/31 01:01:16;;;;;;;11.70;3.50;;;;;;;;;;5051788;27;96681;-77
2021/12/31 01:03:43;;;;;;;8.43;3.00;;;;;;;;;;5035817;27;97386;-81
2021/12/31 01:06:13;;;;;;;10.32;3.45;;;;;;;;;;5016611;28;96946;-81
2021/12/31 01:08:43;;;;;;;10.63;3.63;;;;;;;;;;5030387;28;97117;-82
2021/12/31 01:11:09;;;;;;;7.22;2.80;;;;;;;;;;5031349;28;95265;-81
2021/12/31 01:14:01;;;;;;;8.32;2.92;;;;;;;;;;5037714;27;96844;-81
2021/12/31 01:16:34;;;;;;;7.80;2.80;;;;;;;;;;5029953;28;98581;-79
2021/12/31 01:21:27;;;;;;;9.07;2.85;;;;;;;;;;5030874;28;97278;-79
2021/12/31 01:23:57;;;;;;;14.98;2.72;;;;;;;;;;5030131;28;97466;-80
2021/12/31 01:26:24;;;;;;;13.55;2.78;;;;;;;;;;5033536;27;95611;-82
2021/12/31 01:28:50;;;;;;;11.57;2.90;;;;;;;;;;5046129;27;97081;-80
2021/12/31 01:31:16;;;;;;;8.55;2.63;;;;;;;;;;5012465;28;95385;-80
2021/12/31 01:33:43;;;;;;;11.35;2.70;;;;;;;;;;5031136;28;96788;-81
2021/12/31 01:36:09;;;;;;;5.47;2.50;;;;;;;;;;5030719;28;97376;-80
2021/12/31 01:38:36;;;;;;;8.98;2.83;;;;;;;;;;5030339;28;95279;-79
2021/12/31 01:41:02;;;;;;;10.10;2.95;;;;;;;;;;5030750;27;97304;-78
2021/12/31 01:43:29;;;;;;;8.40;2.83;;;;;;;;;;5029379;27;97746;-78
2021/12/31 01:46:00;;;;;;;9.15;2.85;;;;;;;;;;5030812;28;95747;-81
2021/12/31 01:48:36;;;;;;;8.95;2.60;;;;;;;;;;5012433;28;96945;-77
2021/12/31 01:51:03;;;;;;;13.50;2.85;;;;;;;;;;5033341;28;96927;-80
2021/12/31 01:53:29;;;;;;;9.68;2.53;;;;;;;;;;5030549;28;95600;-78
2021/12/31 01:55:56;;;;;;;7.63;2.60;;;;;;;;;;5030611;28;97258;-79
2021/12/31 01:58:23;;;;;;;6.82;2.35;;;;;;;;;;5036903;27;95306;-80
2021/12/31 02:00:50;;;;;;;8.52;2.65;;;;;;;;;;5025726;28;97053;-78
2021/12/31 02:03:20;;;;;;;7.95;2.80;;;;;;;;;;5030041;28;96071;-79
2021/12/31 02:05:47;;;;;;;10.40;2.72;;;;;;;;;;5030245;28;95658;-79
2021/12/31 02:08:14;;;;;;;9.38;3.80;;;;;;;;;;5030169;28;96819;-80
2021/12/31 02:10:40;;;;;;;7.75;2.88;;;;;;;;;;5029633;28;97605;-77
2021/12/31 02:13:08;;;;;;;7.03;2.70;;;;;;;;;;5032968;27;95198;-79
2021/12/31 02:15:34;;;;;;;7.20;2.70;;;;;;;;;;5030221;27;97336;-77
2021/12/31 02:18:03;;;;;;;8.20;2.53;;;;;;;;;;5030246;28;95266;-80
2021/12/31 02:20:33;;;;;;;9.27;3.40;;;;;;;;;;5029574;28;96778;-75
2021/12/31 02:23:06;;;;;;;10.80;3.00;;;;;;;;;;5029901;28;97531;-75
2021/12/31 02:25:35;;;;;;;7.13;2.88;;;;;;;;;;5029685;27;95330;-79
2021/12/31 02:28:02;;;;;;;9.00;2.90;;;;;;;;;;5030331;27;96924;-79
2021/12/31 02:30:29;;;;;;;11.85;3.15;;;;;;;;;;5011703;28;97683;-79
2021/12/31 02:32:56;;;;;;;7.78;2.60;;;;;;;;;;5032448;28;95843;-76
2021/12/31 02:35:25;;;;;;;8.50;2.67;;;;;;;;;;5029159;28;97436;-78
2021/12/31 02:37:52;;;;;;;8.25;3.03;;;;;;;;;;5029881;27;95458;-78
2021/12/31 02:40:19;;;;;;;7.07;2.45;;;;;;;;;;5029190;28;96844;-75
2021/12/31 02:42:45;;;;;;;9.95;2.60;;;;;;;;;;5030546;27;97271;-78
2021/12/31 02:45:13;;;;;;;5.03;2.47;;;;;;;;;;5029521;28;95292;-76
2021/12/31 02:47:44;;;;;;;7.88;2.42;;;;;;;;;;5011522;28;96735;-77
2021/12/31 02:50:17;;;;;;;8.73;2.65;;;;;;;;;;5029602;28;97433;-79
2021/12/31 02:52:45;;;;;;;12.00;3.33;;;;;;;;;;5029494;28;95338;-76
2021/12/31 02:55:12;;;;;;;8.05;2.70;;;;;;;;;;5031893;28;96853;-77
2021/12/31 02:57:39;;;;;;;8.90;2.88;;;;;;;;;;5029382;27;95508;-75
2021/12/31 03:00:06;;;;;;;8.27;2.78;;;;;;;;;;5029339;28;97083;-73
2021/12/31 03:02:33;;;;;;;8.65;2.97;;;;;;;;;;5028811;28;97312;-74
2021/12/31 03:05:01;;;;;;;8.38;3.00;;;;;;;;;;5029632;28;95249;-74
2021/12/31 03:07:27;;;;;;;7.85;2.90;;;;;;;;;;5029269;28;96943;-75
2021/12/31 03:09:54;;;;;;;11.82;3.00;;;;;;;;;;5028467;28;96197;-78
2021/12/31 03:12:20;;;;;;;8.80;3.17;;;;;;;;;;5029163;27;95931;-77
2021/12/31 03:14:47;;;;;;;12.15;3.40;;;;;;;;;;5029514;27;96895;-77
2021/12/31 03:17:14;;;;;;;9.68;2.95;;;;;;;;;;5031893;28;97585;-78
2021/12/31 03:19:42;;;;;;;8.02;3.13;;;;;;;;;;5029362;28;97107;-80
2021/12/31 03:22:09;;;;;;;8.15;2.85;;;;;;;;;;5028151;28;97635;-80
2021/12/31 03:24:36;;;;;;;8.57;2.95;;;;;;;;;;5029305;28;95433;-80
2021/12/31 03:27:03;;;;;;;10.23;3.50;;;;;;;;;;5028688;27;97131;-80
2021/12/31 03:29:29;;;;;;;9.88;3.50;;;;;;;;;;5028392;28;97430;-78
2021/12/31 03:31:55;;;;;;;13.68;3.70;;;;;;;;;;5028882;28;95374;-81
2021/12/31 03:34:21;;;;;;;9.68;3.50;;;;;;;;;;5029286;28;95573;-80
2021/12/31 03:36:48;;;;;;;9.95;3.10;;;;;;;;;;5028539;28;97252;-79
2021/12/31 03:39:15;;;;;;;7.40;3.05;;;;;;;;;;5031963;28;95217;-79
2021/12/31 03:41:41;;;;;;;9.38;3.08;;;;;;;;;;5010475;27;97409;-81
2021/12/31 03:44:07;;;;;;;13.32;3.10;;;;;;;;;;5028364;28;95395;-81
2021/12/31 03:46:33;;;;;;;8.13;2.95;;;;;;;;;;5028511;28;96863;-78
2021/12/31 03:49:00;;;;;;;9.18;3.08;;;;;;;;;;5028978;28;97689;-81
2021/12/31 03:51:26;;;;;;;12.10;3.45;;;;;;;;;;5028171;28;95418;-78
2021/12/31 03:53:53;;;;;;;9.73;3.03;;;;;;;;;;5028656;28;96846;-78
2021/12/31 03:56:21;;;;;;;8.60;2.83;;;;;;;;;;5011424;27;97370;-77
2021/12/31 03:58:48;;;;;;;11.82;3.13;;;;;;;;;;5048809;27;95352;-78
2021/12/31 04:01:14;;;;;;;11.35;3.05;;;;;;;;;;5049977;27;97101;-79
2021/12/31 04:03:41;;;;;;;9.20;3.15;;;;;;;;;;5013624;28;95388;-78
2021/12/31 04:06:07;;;;;;;12.77;3.30;;;;;;;;;;5028285;28;97186;-78
2021/12/31 04:08:33;;;;;;;14.90;3.17;;;;;;;;;;5028240;28;97448;-78
2021/12/31 04:11:00;;;;;;;6.78;2.60;;;;;;;;;;5010694;27;95360;-78
2021/12/31 04:13:26;;;;;;;9.70;3.03;;;;;;;;;;5027415;27;96829;-78
2021/12/31 04:15:52;;;;;;;10.75;3.20;;;;;;;;;;5028583;28;97348;-79
2021/12/31 04:18:19;;;;;;;9.75;3.08;;;;;;;;;;5028055;28;95358;-78
2021/12/31 04:20:48;;;;;;;8.75;3.03;;;;;;;;;;5028783;28;96788;-78
2021/12/31 04:23:26;;;;;;;10.82;3.17;;;;;;;;;;5030351;28;95379;-76
2021/12/31 04:25:52;;;;;;;8.18;2.90;;;;;;;;;;5028115;28;96681;-76
2021/12/31 04:28:19;;;;;;;10.00;3.58;;;;;;;;;;5042068;27;97285;-76
2021/12/31 04:30:45;;;;;;;9.40;3.10;;;;;;;;;;5030458;27;95718;-77
2021/12/31 04:33:11;;;;;;;10.35;3.88;;;;;;;;;;5027372;28;96888;-75
2021/12/31 04:35:38;;;;;;;11.90;3.22;;;;;;;;;;5027917;28;97954;-75
2021/12/31 04:38:04;;;;;;;10.73;3.50;;;;;;;;;;5028238;28;95975;-77
2021/12/31 04:40:32;;;;;;;8.38;3.20;;;;;;;;;;5028137;28;96838;-77
2021/12/31 04:42:59;;;;;;;6.82;3.03;;;;;;;;;;5043365;27;97603;-75
2021/12/31 04:45:25;;;;;;;8.20;3.00;;;;;;;;;;5030302;27;97115;-79
2021/12/31 04:47:52;;;;;;;7.38;2.90;;;;;;;;;;5027555;28;97365;-77
2021/12/31 04:50:18;;;;;;;10.88;3.40;;;;;;;;;;5030013;27;95474;-76
2021/12/31 04:52:45;;;;;;;5.88;3.05;;;;;;;;;;5031763;28;96771;-76
2021/12/31 04:55:11;;;;;;;13.45;3.20;;;;;;;;;;5030584;28;97716;-77
2021/12/31 04:57:38;;;;;;;12.10;3.13;;;;;;;;;;5031766;28;95359;-77
2021/12/31 05:00:06;;;;;;;8.38;2.95;;;;;;;;;;5013373;28;96821;-76
2021/12/31 05:02:32;;;;;;;12.82;3.17;;;;;;;;;;5030347;28;98081;-74
2021/12/31 05:05:01;;;;;;;12.88;3.13;;;;;;;;;;5038579;27;95784;-76
2021/12/31 05:07:28;;;;;;;11.65;3.13;;;;;;;;;;5050547;27;97751;-75
2021/12/31 05:09:54;;;;;;;8.82;3.38;;;;;;;;;;5051960;27;95450;-77
2021/12/31 05:12:26;;;;;;;8.15;3.10;;;;;;;;;;5033261;27;96739;-76
2021/12/31 05:14:53;;;;;;;13.70;3.30;;;;;;;;;;5044034;27;97272;-76
2021/12/31 05:17:19;;;;;;;9.55;2.97;;;;;;;;;;5031527;28;95706;-75
2021/12/31 05:19:45;;;;;;;7.75;3.10;;;;;;;;;;5031347;27;96863;-76
2021/12/31 05:22:12;;;;;;;10.27;2.88;;;;;;;;;;5009846;28;97404;-78
2021/12/31 05:24:39;;;;;;;9.95;3.05;;;;;;;;;;5027739;28;95407;-77
2021/12/31 05:27:06;;;;;;;6.25;2.70;;;;;;;;;;5033847;28;96914;-79
2021/12/31 05:29:33;;;;;;;8.18;3.03;;;;;;;;;;5030999;28;96011;-80
2021/12/31 05:31:59;;;;;;;9.90;3.42;;;;;;;;;;5030948;28;97136;-77
2021/12/31 05:34:26;;;;;;;8.80;3.67;;;;;;;;;;5030178;28;97387;-79
2021/12/31 05:36:53;;;;;;;10.95;3.25;;;;;;;;;;5030546;27;95402;-79
2021/12/31 05:39:21;;;;;;;9.20;3.10;;;;;;;;;;5030487;28;97139;-79
2021/12/31 05:41:48;;;;;;;9.82;3.28;;;;;;;;;;5030533;28;97664;-80
2021/12/31 05:44:14;;;;;;;9.40;3.38;;;;;;;;;;5030016;28;95613;-79
2021/12/31 05:46:44;;;;;;;7.43;3.10;;;;;;;;;;5030331;28;96848;-80
2021/12/31 05:49:11;;;;;;;11.02;3.28;;;;;;;;;;5033474;28;97270;-81
2021/12/31 05:51:37;;;;;;;7.53;3.03;;;;;;;;;;5037798;27;97359;-80
2021/12/31 05:54:03;;;;;;;8.35;3.13;;;;;;;;;;5017256;28;98053;-79
2021/12/31 05:56:30;;;;;;;10.57;3.38;;;;;;;;;;5027481;28;95921;-80
2021/12/31 05:58:56;;;;;;;5.78;3.03;;;;;;;;;;5030284;28;97132;-80
2021/12/31 06:01:22;;;;;;;8.55;3.25;;;;;;;;;;5028003;27;97082;-80
2021/12/31 06:03:49;;;;;;;7.35;3.10;;;;;;;;;;5028186;28;95431;-80
2021/12/31 06:06:16;;;;;;;9.32;2.92;;;;;;;;;;5011653;27;96931;-80
2021/12/31 06:08:42;;;;;;;10.10;3.38;;;;;;;;;;5018591;28;97484;-79
2021/12/31 06:11:09;;;;;;;7.28;3.17;;;;;;;;;;5032668;28;95552;-81
2021/12/31 06:13:38;;;;;;;9.18;3.30;;;;;;;;;;5029768;28;97697;-80
2021/12/31 06:16:05;;;;;;;9.18;3.20;;;;;;;;;;5012583;28;95746;-80
2021/12/31 06:18:32;;;;;;;8.20;3.22;;;;;;;;;;5029989;28;96569;-80
2021/12/31 06:21:01;;;;;;;8.02;2.88;;;;;;;;;;5021262;27;96659;-79
2021/12/31 06:23:27;;;;;;;6.47;3.00;;;;;;;;;;5029971;28;95458;-80
2021/12/31 06:25:54;;;;;;;7.53;3.00;;;;;;;;;;5029724;28;96088;-79
2021/12/31 06:28:20;;;;;;;8.57;3.00;;;;;;;;;;5029929;28;97358;-77
2021/12/31 06:30:46;;;;;;;14.25;3.05;;;;;;;;;;5033562;28;95245;-75
2021/12/31 06:33:13;;;;;;;7.53;2.90;;;;;;;;;;5028458;28;97425;-76
2021/12/31 06:35:39;;;;;;;8.15;3.22;;;;;;;;;;5048045;27;95237;-78
2021/12/31 06:38:06;;;;;;;9.82;2.78;;;;;;;;;;5049552;27;97157;-78
2021/12/31 06:40:35;;;;;;;7.43;2.80;;;;;;;;;;5043559;27;95975;-77
2021/12/31 06:43:01;;;;;;;9.82;3.03;;;;;;;;;;5011181;28;95505;-77
2021/12/31 06:45:28;;;;;;;10.15;3.28;;;;;;;;;;5029253;28;96854;-78
2021/12/31 06:47:55;;;;;;;9.10;3.17;;;;;;;;;;5029376;28;97284;-76
2021/12/31 06:50:24;;;;;;;6.03;2.78;;;;;;;;;;5047202;27;95404;-78
2021/12/31 06:52:50;;;;;;;7.93;2.50;;;;;;;;;;5053036;27;96729;-75
2021/12/31 06:55:17;;;;;;;7.35;2.88;;;;;;;;;;5030591;27;95290;-75
2021/12/31 06:57:46;;;;;;;11.50;3.17;;;;;;;;;;5029474;28;96810;-77
2021/12/31 07:00:12;;;;;;;11.70;3.67;;;;;;;;;;5010665;28;97262;-76
2021/12/31 07:02:39;;;;;;;9.15;3.05;;;;;;;;;;5028775;28;95542;-76
2021/12/31 07:05:05;;;;;;;9.18;3.05;;;;;;;;;;5039571;27;96436;-74
2021/12/31 07:07:32;;;;;;;7.57;3.03;;;;;;;;;;5028706;28;97869;-78
2021/12/31 07:09:58;;;;;;;14.02;3.40;;;;;;;;;;5029728;28;95738;-77
2021/12/31 07:12:24;;;;;;;6.35;3.30;;;;;;;;;;5028640;27;96782;-79
2021/12/31 07:14:53;;;;;;;8.93;3.17;;;;;;;;;;5014291;28;97625;-77
2021/12/31 07:17:19;;;;;;;10.07;3.08;;;;;;;;;;5028174;28;96863;-77
2021/12/31 07:19:45;;;;;;;8.32;3.03;;;;;;;;;;5029518;27;97319;-76
2021/12/31 07:22:11;;;;;;;8.27;3.13;;;;;;;;;;5028153;28;95700;-77
2021/12/31 07:24:38;;;;;;;5.95;2.90;;;;;;;;;;5028865;28;96779;-76
2021/12/31 07:27:04;;;;;;;9.30;3.33;;;;;;;;;;5028665;28;97750;-79
2021/12/31 07:29:35;;;;;;;13.77;3.78;;;;;;;;;;5011273;28;95942;-75
2021/12/31 07:32:01;;;;;;;5.43;2.92;;;;;;;;;;5029012;28;96802;-77
2021/12/31 07:34:27;;;;;;;7.55;3.03;;;;;;;;;;5028647;27;96476;-79
2021/12/31 07:36:54;;;;;;;10.10;3.30;;;;;;;;;;5013659;28;95241;-75
2021/12/31 07:39:23;;;;;;;9.57;3.28;;;;;;;;;;5028744;28;97359;-76
2021/12/31 07:41:50;;;;;;;15.27;3.65;;;;;;;;;;5028626;28;95365;-77
2021/12/31 07:44:16;;;;;;;10.68;3.40;;;;;;;;;;5021973;28;96876;-77
2021/12/31 07:46:44;;;;;;;10.02;3.17;;;;;;;;;;5028734;28;97374;-78
2021/12/31 07:49:10;;;;;;;9.45;3.72;;;;;;;;;;5026689;27;96176;-78
2021/12/31 07:51:36;;;;;;;11.20;3.25;;;;;;;;;;5023318;28;96593;-77
2021/12/31 07:54:03;;;;;;;9.32;3.30;;;;;;;;;;5028394;28;97341;-75
2021/12/31 07:56:30;;;;;;;6.97;2.85;;;;;;;;;;5028240;28;95363;-79
2021/12/31 07:58:56;;;;;;;12.35;3.53;;;;;;;;;;5013892;28;96929;-76
2021/12/31 08:01:22;;;;;;;8.55;3.40;;;;;;;;;;5027879;28;95378;-75
2021/12/31 08:03:49;;;;;;;9.73;3.60;;;;;;;;;;5043077;27;95739;-78
2021/12/31 08:06:16;;;;;;;14.10;3.42;;;;;;;;;;5048514;27;97081;-75
2021/12/31 08:08:42;;;;;;;10.85;3.35;;;;;;;;;;5037497;27;95344;-79
2021/12/31 08:11:08;;;;;;;10.00;3.42;;;;;;;;;;5010025;28;96853;-79
2021/12/31 08:13:35;;;;;;;8.73;3.35;;;;;;;;;;5027558;28;97511;-78
2021/12/31 08:16:01;;;;;;;8.27;3.75;;;;;;;;;;5028090;28;95135;-78
2021/12/31 08:18:28;;;;;;;10.95;3.85;;;;;;;;;;5029265;27;96899;-79
2021/12/31 08:20:55;;;;;;;9.07;3.60;;;;;;;;;;5031236;28;96797;-77
2021/12/31 08:23:21;;;;;;;15.23;3.80;;;;;;;;;;5028007;27;97113;-78
2021/12/31 08:25:47;;;;;;;7.43;3.25;;;;;;;;;;5018259;27;97453;-78
2021/12/31 08:28:14;;;;;;;8.95;3.47;;;;;;;;;;5020806;27;95324;-79
2021/12/31 08:30:43;;;;;;;15.40;3.80;;;;;;;;;;5023288;28;96800;-78
2021/12/31 15:27:56;;;;;;;18.50;7.38;;;;;;;;;;5053319;27;95289;-77
2021/12/31 15:30:22;;;;;;;20.58;7.80;;;;;;;;;;5050844;27;97818;-77
2021/12/31 15:36:25;;;;;;;21.98;9.00;;;;;;;;;;5048280;27;95019;-80
2021/12/31 15:38:52;;;;;;;18.17;7.25;;;;;;;;;;5049683;27;97339;-76
2021/12/31 15:41:19;;;;;;;26.00;10.65;;;;;;;;;;5050959;27;95320;-75
2021/12/31 15:47:13;;;;;;;22.77;8.18;;;;;;;;;;5047670;27;95354;-79
2021/12/31 15:49:40;;;;;;;22.30;9.50;;;;;;;;;;5054163;27;95226;-78
2021/12/31 15:59:03;;;;;;;35.03;16.95;;;;;;;;;;5051069;27;95047;-78
2021/12/31 16:01:30;;;;;;;22.15;7.65;;;;;;;;;;5049776;27;97475;-76
2021/12/31 16:07:25;;;;;;;32.15;15.88;;;;;;;;;;5047727;27;95026;-79
2021/12/31 16:09:54;;;;;;;22.83;10.20;;;;;;;;;;5049537;27;97590;-79
2021/12/31 16:16:20;;;;;;;27.50;10.98;;;;;;;;;;5050499;27;94916;-77
2021/12/31 16:18:46;;;;;;;24.95;9.85;;;;;;;;;;5049545;27;95344;-78
2021/12/31 16:21:12;;;;;;;22.48;10.27;;;;;;;;;;5050392;27;96806;-78
2021/12/31 16:27:00;;;;;;;21.88;9.77;;;;;;;;;;5045207;27;95168;-80
2021/12/31 16:29:44;;;;;;;28.27;11.05;;;;;;;;;;5070829;27;96682;-79
2021/12/31 16:39:00;;;;;;;23.50;8.85;;;;;;;;;;5057922;27;94954;-75
2021/12/31 16:41:27;;;;;;;39.17;19.60;;;;;;;;;;5059419;27;96202;-76
2021/12/31 16:47:19;;;;;;;26.63;8.50;;;;;;;;;;5053712;27;95411;-75
2021/12/31 16:49:45;;;;;;;29.42;9.13;;;;;;;;;;5038803;27;95384;-76
2021/12/31 16:56:18;;;;;;;27.55;10.10;;;;;;;;;;5053926;27;95420;-75
2021/12/31 17:02:16;;;;;;;23.67;8.68;;;;;;;;;;5053710;27;95126;-75
2021/12/31 17:04:42;;;;;;;31.33;8.05;;;;;;;;;;5056334;27;97231;-78
2021/12/31 17:07:10;;;;;;;24.38;8.13;;;;;;;;;;5041731;27;95275;-77
2021/12/31 17:09:37;;;;;;;26.67;9.40;;;;;;;;;;5056209;27;97755;-76
2021/12/31 17:19:00;;;;;;;23.30;8.75;;;;;;;;;;5056521;27;95569;-75
2021/12/31 17:21:26;;;;;;;29.98;11.95;;;;;;;;;;5056360;27;95358;-78
2021/12/31 17:27:21;;;;;;;26.10;8.95;;;;;;;;;;5047218;27;95893;-75
2021/12/31 17:29:47;;;;;;;27.80;9.48;;;;;;;;;;5056212;27;95247;-76
2021/12/31 17:36:12;;;;;;;28.27;10.43;;;;;;;;;;5052281;27;94974;-82
2021/12/31 17:42:00;;;;;;;34.47;11.73;;;;;;;;;;5052086;27;94867;-76
2021/12/31 17:44:26;;;;;;;38.28;12.55;;;;;;;;;;5055124;27;95357;-81
2021/12/31 17:46:54;;;;;;;25.17;11.73;;;;;;;;;;5054586;27;95701;-78
2021/12/31 17:52:55;;;;;;;28.95;13.95;;;;;;;;;;5052064;27;95018;-80
2021/12/31 17:55:21;;;;;;;33.50;15.13;;;;;;;;;;5055027;27;96975;-78
2021/12/31 17:57:48;;;;;;;36.05;16.23;;;;;;;;;;5057512;27;95046;-75
2021/12/31 18:00:15;;;;;;;34.03;15.77;;;;;;;;;;5054889;27;96893;-77
2021/12/31 18:06:10;;;;;;;36.38;15.40;;;;;;;;;;5051833;27;95156;-79
2021/12/31 18:12:04;;;;;;;35.60;17.27;;;;;;;;;;5051435;27;95412;-80
2021/12/31 18:14:30;;;;;;;37.95;18.90;;;;;;;;;;5054508;27;94982;-80
2021/12/31 18:20:18;;;;;;;36.33;17.10;;;;;;;;;;5054674;27;95396;-82
2021/12/31 18:26:25;;;;;;;28.27;13.60;;;;;;;;;;5051269;27;95321;-82
2021/12/31 18:28:51;;;;;;;36.75;18.95;;;;;;;;;;5053395;27;95375;-76
2021/12/31 18:31:18;;;;;;;41.40;19.15;;;;;;;;;;5054378;27;96783;-81
2021/12/31 18:37:13;;;;;;;35.83;16.35;;;;;;;;;;5051255;27;95092;-76
2021/12/31 18:39:39;;;;;;;45.92;23.25;;;;;;;;;;5054074;27;97036;-75
2021/12/31 18:49:05;;;;;;;43.60;15.15;;;;;;;;;;5054136;27;95411;-76
2021/12/31 18:51:32;;;;;;;35.42;14.82;;;;;;;;;;5054413;27;95275;-75
2021/12/31 18:57:27;;;;;;;38.60;17.40;;;;;;;;;;5050632;27;95441;-73
2021/12/31 18:59:54;;;;;;;34.92;13.10;;;;;;;;;;5053836;27;95223;-74
2021/12/31 19:05:51;;;;;;;32.70;14.20;;;;;;;;;;5050717;27;95467;-75
2021/12/31 19:08:17;;;;;;;39.00;13.55;;;;;;;;;;5053679;27;95366;-75
2021/12/31 19:10:43;;;;;;;39.45;14.63;;;;;;;;;;5056690;27;96822;-75
2021/12/31 19:16:38;;;;;;;41.78;18.52;;;;;;;;;;5050694;27;95097;-74
2021/12/31 19:19:04;;;;;;;42.88;15.55;;;;;;;;;;5035233;27;97440;-75
2021/12/31 19:21:30;;;;;;;40.85;20.02;;;;;;;;;;5053480;27;95279;-75
2021/12/31 19:27:19;;;;;;;42.45;20.67;;;;;;;;;;5049801;27;95414;-75
2021/12/31 19:29:45;;;;;;;42.25;17.02;;;;;;;;;;5053497;27;95391;-74
2021/12/31 19:36:17;;;;;;;39.75;18.38;;;;;;;;;;5053525;27;95413;-74
2021/12/31 19:38:43;;;;;;;45.40;22.25;;;;;;;;;;5053222;27;96707;-74
2021/12/31 19:41:10;;;;;;;34.70;14.85;;;;;;;;;;5053043;27;97601;-74
2021/12/31 19:47:04;;;;;;;44.08;15.80;;;;;;;;;;5050529;27;95045;-74
2021/12/31 19:49:34;;;;;;;38.22;19.67;;;;;;;;;;5053179;27;97225;-75
2021/12/31 19:58:51;;;;;;;49.60;21.50;;;;;;;;;;5053403;27;95507;-75
2021/12/31 20:01:17;;;;;;;69.95;38.85;;;;;;;;;;5056499;27;94933;-74
2021/12/31 20:07:12;;;;;;;56.70;28.85;;;;;;;;;;5050120;27;94967;-73
2021/12/31 20:09:38;;;;;;;62.13;30.65;;;;;;;;;;5052863;27;97283;-74
2021/12/31 20:18:38;;;;;;;65.65;33.83;;;;;;;;;;5056328;27;96853;-82
2021/12/31 20:21:04;;;;;;;58.70;33.55;;;;;;;;;;5056144;27;96965;-80
2021/12/31 20:26:59;;;;;;;48.58;19.20;;;;;;;;;;5053330;27;95526;-81
2021/12/31 20:29:29;;;;;;;42.72;20.38;;;;;;;;;;5056035;27;95323;-79
2021/12/31 20:38:45;;;;;;;47.00;22.42;;;;;;;;;;5056451;27;95085;-81
2021/12/31 20:41:11;;;;;;;58.13;23.58;;;;;;;;;;5056204;27;96600;-76
2021/12/31 20:47:06;;;;;;;86.63;46.05;;;;;;;;;;5053200;27;94921;-82
2021/12/31 20:49:32;;;;;;;65.60;29.42;;;;;;;;;;5059143;27;96754;-83
2021/12/31 20:58:48;;;;;;;52.58;22.20;;;;;;;;;;5056047;27;95224;-84
2021/12/31 21:01:15;;;;;;;66.13;29.15;;;;;;;;;;5055994;27;94981;-77
2021/12/31 21:07:03;;;;;;;93.13;49.55;;;;;;;;;;5052664;27;95466;-75
2021/12/31 21:09:30;;;;;;;66.63;31.77;;;;;;;;;;5055648;27;95295;-73
2021/12/31 21:18:53;;;;;;;84.68;45.25;;;;;;;;;;5055706;27;94974;-76
2021/12/31 21:21:22;;;;;;;61.75;25.95;;;;;;;;;;5055210;27;97549;-77
2021/12/31 21:27:16;;;;;;;64.57;32.97;;;;;;;;;;5052497;27;95059;-79
2021/12/31 21:36:39;;;;;;;47.20;20.27;;;;;;;;;;5055107;27;97689;-78
2021/12/31 21:39:06;;;;;;;57.63;28.00;;;;;;;;;;5054952;27;97349;-75
2021/12/31 21:41:32;;;;;;;58.08;28.35;;;;;;;;;;5058254;27;94949;-77
2021/12/31 21:47:27;;;;;;;74.97;35.45;;;;;;;;;;5052211;27;94988;-75
2021/12/31 21:49:53;;;;;;;41.83;18.20;;;;;;;;;;5054911;27;96431;-74
2021/12/31 21:56:18;;;;;;;56.72;21.85;;;;;;;;;;5052080;27;94887;-75
2021/12/31 21:58:45;;;;;;;50.60;22.58;;;;;;;;;;5054828;27;96801;-77
2021/12/31 22:01:11;;;;;;;50.50;20.60;;;;;;;;;;5054581;27;97639;-75
2021/12/31 22:07:06;;;;;;;49.85;19.80;;;;;;;;;;5054909;27;95004;-77
2021/12/31 22:09:32;;;;;;;47.65;18.33;;;;;;;;;;5054714;27;95342;-75
2021/12/31 22:18:49;;;;;;;86.00;41.28;;;;;;;;;;5054872;27;95069;-75
2021/12/31 22:21:15;;;;;;;69.65;30.23;;;;;;;;;;5054560;27;96871;-76
2021/12/31 22:27:04;;;;;;;62.45;20.08;;;;;;;;;;5051656;27;94918;-76
2021/12/31 22:29:30;;;;;;;55.13;21.30;;;;;;;;;;5054023;27;97052;-74
2021/12/31 22:38:53;;;;;;;56.00;26.67;;;;;;;;;;5054298;27;95434;-73
2021/12/31 22:41:19;;;;;;;61.53;26.40;;;;;;;;;;5054149;27;95272;-76
2021/12/31 22:47:14;;;;;;;82.47;34.13;;;;;;;;;;5051043;27;95023;-74
2021/12/31 22:49:40;;;;;;;102.57;44.95;;;;;;;;;;5054136;27;95291;-73
2021/12/31 22:56:12;;;;;;;46.88;15.98;;;;;;;;;;5054159;27;95415;-73
2021/12/31 23:02:07;;;;;;;53.38;16.40;;;;;;;;;;5050851;27;95368;-76
2021/12/31 23:11:32;;;;;;;345.17;222.93;;;;;;;;;;5053084;27;95467;-76
2021/12/31 23:17:27;;;;;;;171.07;90.68;;;;;;;;;;5049934;27;95405;-74
2021/12/31 23:19:53;;;;;;;117.55;58.17;;;;;;;;;;5053381;27;97752;-73
2021/12/31 23:29:09;;;;;;;133.18;77.70;;;;;;;;;;5053201;27;95266;-74
2021/12/31 23:31:35;;;;;;;108.43;54.55;;;;;;;;;;5053317;27;97167;-75
2021/12/31 23:37:30;;;;;;;140.90;71.90;;;;;;;;;;5050437;27;94946;-75
2021/12/31 23:40:00;;;;;;;96.60;42.47;;;;;;;;;;5053243;27;96784;-74
2021/12/31 23:46:22;;;;;;;137.43;70.88;;;;;;;;;;5050407;27;94937;-74
2021/12/31 23:48:49;;;;;;;93.18;41.38;;;;;;;;;;5058381;27;95471;-75
2021/12/31 23:51:18;;;;;;;85.70;38.38;;;;;;;;;;5056634;27;95415;-75
2021/12/31 23:57:06;;;;;;;87.70;46.53;;;;;;;;;;5053646;27;95487;-75
